Time;durP1;ratioP1;P1;durP2;ratioP2;P2;SDS_P1;SDS_P2;PMS_P1;PMS_P2;Temp;Humidity;BMP_temperature;BMP_pressure;BME280_temperature;BME280_humidity;BME280_pressure;Samples;Min_cycle;Max_cycle;Signal;HPM_P1;HPM_P2
2022/06/23 00:01:00;;;;;;;7.50;6.43;;;14.30;99.90;;;;;;5035107;28;20029;-27
2022/06/23 00:03:30;;;;;;;7.55;6.22;;;14.40;99.90;;;;;;5052689;28;20104;-27
2022/06/23 00:06:03;;;;;;;8.48;6.72;;;14.30;99.90;;;;;;5052495;28;20096;-27
2022/06/23 00:08:29;;;;;;;7.20;6.10;;;14.30;99.90;;;;;;5052533;28;20508;-27
2022/06/23 00:10:57;;;;;;;8.32;5.93;;;14.30;99.90;;;;;;5052705;28;20109;-28
2022/06/23 00:13:31;;;;;;;7.15;6.03;;;14.30;99.90;;;;;;5035005;28;20041;-27
2022/06/23 00:15:58;;;;;;;;;;;14.30;99.90;;;;;;5053105;28;20578;-27
2022/06/23 00:18:27;;;;;;;8.23;6.10;;;14.20;99.90;;;;;;5052135;28;19971;-27
2022/06/23 00:20:55;;;;;;;7.10;6.40;;;14.20;99.90;;;;;;5052547;28;20392;-27
2022/06/23 00:23:42;;;;;;;7.20;6.43;;;14.20;99.90;;;;;;5052067;28;20033;-27
2022/06/23 00:26:14;;;;;;;6.75;6.05;;;14.20;99.90;;;;;;5052298;28;20119;-27
2022/06/23 00:28:50;;;;;;;6.20;5.57;;;14.20;99.90;;;;;;5052124;28;20064;-27
2022/06/23 00:31:41;;;;;;;7.03;6.00;;;14.20;99.90;;;;;;5052182;28;20040;-27
2022/06/23 00:34:17;;;;;;;8.38;6.53;;;14.20;99.90;;;;;;5051952;28;20040;-27
2022/06/23 00:36:51;;;;;;;7.93;6.70;;;14.10;99.90;;;;;;5052129;28;20037;-27
2022/06/23 00:39:39;;;;;;;7.88;7.03;;;14.00;99.90;;;;;;5052167;28;20507;-27
2022/06/23 00:42:21;;;;;;;8.10;7.03;;;14.00;99.90;;;;;;5032439;28;20041;-27
2022/06/23 00:45:06;;;;;;;8.27;6.78;;;14.00;99.90;;;;;;5040371;28;20067;-27
2022/06/23 00:47:37;;;;;;;7.00;6.32;;;14.00;99.90;;;;;;5051980;28;20069;-27
2022/06/23 00:50:12;;;;;;;7.93;7.10;;;13.90;99.90;;;;;;5049801;28;20045;-27
2022/06/23 00:52:45;;;;;;;7.40;6.68;;;13.90;99.90;;;;;;5051693;28;20059;-27
2022/06/23 00:55:20;;;;;;;9.52;6.97;;;13.80;99.90;;;;;;5051906;28;20127;-27
2022/06/23 00:57:57;;;;;;;7.13;6.43;;;13.90;99.90;;;;;;5052039;28;20453;-27
2022/06/23 01:00:31;;;;;;;7.72;6.93;;;13.90;99.90;;;;;;5051327;28;20095;-27
2022/06/23 01:03:18;;;;;;;8.27;7.15;;;13.80;99.90;;;;;;5037572;28;20095;-27
2022/06/23 01:05:54;;;;;;;9.32;7.32;;;13.80;99.90;;;;;;5052023;28;20041;-27
2022/06/23 01:08:29;;;;;;;9.85;7.28;;;13.70;99.90;;;;;;5051651;28;20073;-27
2022/06/23 01:11:09;;;;;;;7.57;6.22;;;13.70;99.90;;;;;;5055781;28;20067;-27
2022/06/23 01:13:40;;;;;;;7.22;6.35;;;13.70;99.90;;;;;;5056051;28;20037;-27
2022/06/23 01:16:23;;;;;;;8.10;6.85;;;13.70;99.90;;;;;;5056040;28;20538;-27
2022/06/23 01:19:09;;;;;;;7.72;6.72;;;13.60;99.90;;;;;;5037149;28;20392;-27
2022/06/23 01:21:50;;;;;;;8.98;6.57;;;13.60;99.90;;;;;;5051141;28;20410;-27
2022/06/23 01:24:37;;;;;;;9.93;7.25;;;13.60;99.90;;;;;;5035194;28;20056;-27
2022/06/23 01:27:36;;;;;;;8.32;6.95;;;13.60;99.90;;;;;;5036512;28;20038;-28
2022/06/23 01:30:08;;;;;;;7.70;6.90;;;13.50;99.90;;;;;;5038246;28;20186;-27
2022/06/23 01:32:53;;;;;;;9.98;7.32;;;13.50;99.90;;;;;;5038441;28;20044;-27
2022/06/23 01:35:27;;;;;;;7.47;6.78;;;13.50;99.90;;;;;;5056543;28;20610;-27
2022/06/23 01:38:17;;;;;;;8.38;7.30;;;13.40;99.90;;;;;;5042543;28;20050;-27
2022/06/23 01:40:52;;;;;;;8.27;6.95;;;13.40;99.90;;;;;;5017901;28;20195;-27
2022/06/23 01:43:19;;;;;;;8.77;6.95;;;13.30;99.90;;;;;;5038068;28;20417;-27
2022/06/23 01:45:52;;;;;;;8.27;7.47;;;13.40;99.90;;;;;;5055852;28;20032;-27
2022/06/23 01:48:53;;;;;;;9.65;7.32;;;13.30;99.90;;;;;;5055463;28;20369;-27
2022/06/23 01:51:27;;;;;;;8.02;6.80;;;13.30;99.90;;;;;;5032474;28;20099;-26
2022/06/23 01:54:06;;;;;;;9.80;7.20;;;13.30;99.90;;;;;;5037140;28;20046;-27
2022/06/23 01:56:49;;;;;;;9.35;8.32;;;13.30;99.90;;;;;;5022129;28;20041;-28
2022/06/23 01:59:21;;;;;;;8.27;7.20;;;13.30;99.90;;;;;;5049135;28;20155;-30
2022/06/23 02:02:05;;;;;;;9.40;7.95;;;13.20;99.90;;;;;;5043397;28;20488;-27
2022/06/23 02:04:41;;;;;;;10.75;7.78;;;13.20;99.90;;;;;;5044826;28;20102;-27
2022/06/23 02:07:23;;;;;;;10.15;8.43;;;13.10;99.90;;;;;;5034253;28;20083;-28
2022/06/23 02:09:52;;;;;;;9.18;7.30;;;13.10;99.90;;;;;;5040510;28;20062;-29
2022/06/23 02:12:44;;;;;;;11.18;8.02;;;13.20;99.90;;;;;;5052415;28;20098;-29
2022/06/23 02:15:25;;;;;;;8.75;7.20;;;13.20;99.90;;;;;;5026649;28;20079;-30
2022/06/23 02:18:01;;;;;;;9.82;8.07;;;13.10;99.90;;;;;;5049580;28;20522;-29
2022/06/23 02:20:43;;;;;;;11.43;8.90;;;13.10;99.90;;;;;;5034583;28;20132;-30
2022/06/23 02:23:18;;;;;;;8.82;7.47;;;13.10;99.90;;;;;;5031686;28;20037;-28
2022/06/23 02:26:01;;;;;;;9.82;8.18;;;13.10;99.90;;;;;;5053309;28;20041;-28
2022/06/23 02:28:52;;;;;;;10.30;8.88;;;13.10;99.90;;;;;;5031474;28;20060;-28
2022/06/23 02:31:37;;;;;;;8.68;7.85;;;13.10;99.90;;;;;;5053916;28;20041;-28
2022/06/23 02:34:22;;;;;;;10.55;8.85;;;13.10;99.90;;;;;;5047213;28;20044;-28
2022/06/23 02:36:58;;;;;;;9.25;8.18;;;13.10;99.90;;;;;;5054749;28;20496;-29
2022/06/23 02:39:48;;;;;;;12.40;9.02;;;13.00;99.90;;;;;;5047824;28;20052;-29
2022/06/23 02:42:30;;;;;;;11.77;9.40;;;13.00;99.90;;;;;;5036677;28;20095;-29
2022/06/23 02:45:11;;;;;;;9.80;8.35;;;13.00;99.90;;;;;;5045808;28;20095;-29
2022/06/23 02:47:42;;;;;;;10.82;8.18;;;13.00;99.90;;;;;;5031436;28;20048;-29
2022/06/23 02:50:54;;;;;;;10.80;9.20;;;13.00;99.90;;;;;;5046468;28;20038;-29
2022/06/23 02:53:58;;;;;;;10.10;8.63;;;12.90;99.90;;;;;;4978990;28;20053;-29
2022/06/23 02:56:31;;;;;;;13.13;9.02;;;12.90;99.90;;;;;;5041213;28;20037;-29
2022/06/23 02:59:13;;;;;;;11.65;9.02;;;12.90;99.90;;;;;;5047237;28;20051;-29
2022/06/23 03:01:51;;;;;;;12.02;9.23;;;12.90;99.90;;;;;;5050093;28;20105;-29
2022/06/23 03:04:29;;;;;;;11.32;9.40;;;12.90;99.90;;;;;;5045880;28;20401;-29
2022/06/23 03:07:26;;;;;;;11.63;9.93;;;12.90;99.90;;;;;;5052795;28;20044;-29
2022/06/23 03:10:04;;;;;;;11.32;8.98;;;12.90;99.90;;;;;;5050514;28;20044;-29
2022/06/23 03:12:39;;;;;;;11.80;8.65;;;12.80;99.90;;;;;;5054437;28;20491;-29
2022/06/23 03:15:13;;;;;;;11.45;9.32;;;12.80;99.90;;;;;;5053523;28;20404;-27
2022/06/23 03:18:00;;;;;;;12.75;10.55;;;12.80;99.90;;;;;;5036285;28;20048;-28
2022/06/23 03:20:48;;;;;;;11.35;9.98;;;12.80;99.90;;;;;;5036951;28;20048;-29
2022/06/23 03:23:43;;;;;;;12.82;10.50;;;12.80;99.90;;;;;;5036465;28;20519;-29
2022/06/23 03:26:24;;;;;;;10.98;9.20;;;12.80;99.90;;;;;;5052336;28;20033;-29
2022/06/23 03:29:05;;;;;;;10.93;9.05;;;12.70;99.90;;;;;;5035112;28;20037;-29
2022/06/23 03:31:47;;;;;;;12.43;10.15;;;12.80;99.90;;;;;;5053396;28;20073;-29
2022/06/23 03:34:29;;;;;;;12.90;10.43;;;12.80;99.90;;;;;;5043917;28;20037;-29
2022/06/23 03:37:02;;;;;;;13.80;10.00;;;12.80;99.90;;;;;;5048629;28;20106;-30
2022/06/23 03:42:45;;;;;;;11.60;9.52;;;12.80;99.90;;;;;;5037649;28;20072;-29
2022/06/23 03:45:27;;;;;;;12.65;9.55;;;12.80;99.90;;;;;;5035286;28;20098;-29
2022/06/23 03:48:05;;;;;;;12.30;10.52;;;12.80;99.90;;;;;;5030772;28;20416;-29
2022/06/23 03:50:38;;;;;;;13.20;10.48;;;12.90;99.90;;;;;;5051360;28;20059;-29
2022/06/23 03:53:34;;;;;;;13.55;10.10;;;12.80;99.90;;;;;;5043131;28;20423;-29
2022/06/23 03:56:04;;;;;;;13.23;10.82;;;12.90;99.90;;;;;;5050608;28;20047;-29
2022/06/23 03:58:37;;;;;;;12.50;10.13;;;12.90;99.90;;;;;;5021942;28;20115;-28
2022/06/23 04:01:15;;;;;;;11.65;10.25;;;12.80;99.90;;;;;;5054677;28;20037;-27
2022/06/23 04:03:57;;;;;;;15.10;11.07;;;12.90;99.90;;;;;;5054845;28;20044;-28
2022/06/23 04:06:37;;;;;;;13.30;10.30;;;12.90;99.90;;;;;;5048178;28;20116;-27
2022/06/23 04:09:26;;;;;;;11.77;9.80;;;12.90;99.90;;;;;;5039341;28;20457;-28
2022/06/23 04:12:31;;;;;;;11.48;10.20;;;12.90;99.90;;;;;;5030634;28;20029;-28
2022/06/23 04:15:05;;;;;;;13.82;9.70;;;12.90;99.90;;;;;;4942545;28;20043;-28
2022/06/23 04:17:55;;;;;;;12.38;9.52;;;12.90;99.90;;;;;;4971517;28;20434;-28
2022/06/23 04:20:29;;;;;;;11.98;10.15;;;13.00;99.90;;;;;;5020587;28;20691;-28
2022/06/23 04:23:26;;;;;;;12.32;9.60;;;13.00;99.90;;;;;;5038937;28;20033;-28
2022/06/23 04:26:02;;;;;;;12.75;10.98;;;13.00;99.90;;;;;;5024663;28;20044;-28
2022/06/23 04:28:37;;;;;;;11.23;9.25;;;13.00;99.90;;;;;;5031993;28;20037;-28
2022/06/23 04:31:06;;;;;;;13.60;11.07;;;13.10;99.90;;;;;;5052305;28;20045;-28
2022/06/23 04:33:40;;;;;;;11.07;9.85;;;13.10;99.90;;;;;;5032396;28;20033;-28
2022/06/23 04:36:16;;;;;;;10.68;9.25;;;13.20;99.90;;;;;;5034118;28;20084;-28
2022/06/23 04:38:52;;;;;;;11.82;9.88;;;13.20;99.90;;;;;;5040967;28;20037;-28
2022/06/23 04:41:38;;;;;;;13.45;9.93;;;13.30;99.90;;;;;;5040810;28;20040;-27
2022/06/23 04:44:17;;;;;;;13.45;10.35;;;13.40;99.90;;;;;;5045784;28;20120;-27
2022/06/23 04:47:00;;;;;;;11.38;9.82;;;13.40;99.90;;;;;;5048994;28;20060;-28
2022/06/23 04:49:32;;;;;;;12.60;10.27;;;13.50;99.90;;;;;;5045654;28;20501;-28
2022/06/23 04:52:24;;;;;;;10.45;9.35;;;13.60;99.90;;;;;;5044423;28;20049;-28
2022/06/23 04:54:57;;;;;;;12.65;9.90;;;13.60;99.90;;;;;;5010710;28;20132;-28
2022/06/23 04:57:33;;;;;;;11.18;10.07;;;13.70;99.90;;;;;;5050767;28;20082;-29
2022/06/23 05:00:02;;;;;;;10.65;9.18;;;13.80;99.90;;;;;;5049149;28;20036;-28
2022/06/23 05:02:43;;;;;;;12.10;10.77;;;13.90;99.90;;;;;;5050558;28;20043;-28
2022/06/23 05:05:15;;;;;;;12.13;10.40;;;13.90;99.90;;;;;;5048249;28;20041;-29
2022/06/23 05:08:28;;;;;;;12.73;10.73;;;14.00;99.90;;;;;;5044315;28;20037;-28
2022/06/23 05:11:09;;;;;;;16.20;12.00;;;14.10;99.90;;;;;;5032010;28;20130;-28
2022/06/23 05:13:47;;;;;;;11.77;10.57;;;14.30;99.90;;;;;;5042569;28;20040;-28
2022/06/23 05:16:23;;;;;;;11.77;9.63;;;14.40;99.90;;;;;;5048862;28;20488;-29
2022/06/23 05:18:51;;;;;;;14.95;11.98;;;14.50;99.90;;;;;;5038184;28;20513;-29
2022/06/23 05:21:22;;;;;;;13.30;11.57;;;14.60;99.90;;;;;;5047563;28;20112;-29
2022/06/23 05:23:54;;;;;;;12.23;11.02;;;14.60;99.90;;;;;;5041038;28;20112;-28
2022/06/23 05:26:42;;;;;;;13.95;11.43;;;14.80;99.90;;;;;;5048958;28;20068;-28
2022/06/23 05:29:39;;;;;;;11.63;10.43;;;14.80;99.90;;;;;;5048025;28;20037;-28
2022/06/23 05:32:15;;;;;;;13.63;11.55;;;15.00;99.90;;;;;;5028312;28;20471;-28
2022/06/23 05:34:56;;;;;;;13.95;10.43;;;15.10;99.90;;;;;;5043636;28;20155;-28
2022/06/23 05:37:35;;;;;;;12.43;10.50;;;15.20;99.90;;;;;;5042368;28;20072;-28
2022/06/23 05:40:26;;;;;;;11.55;10.07;;;15.30;99.90;;;;;;5047899;28;20049;-28
2022/06/23 05:42:55;;;;;;;12.43;10.60;;;15.50;99.90;;;;;;5049764;28;20045;-30
2022/06/23 05:45:43;;;;;;;13.18;10.43;;;15.70;99.90;;;;;;5050498;28;20179;-28
2022/06/23 05:48:39;;;;;;;11.48;10.27;;;15.80;99.90;;;;;;5047077;28;20045;-29
2022/06/23 05:51:16;;;;;;;13.93;10.65;;;15.90;99.90;;;;;;5039789;28;20501;-29
2022/06/23 05:54:03;;;;;;;11.80;10.60;;;16.10;99.90;;;;;;5040930;28;20043;-28
2022/06/23 05:56:37;;;;;;;12.57;10.20;;;16.20;99.90;;;;;;5054178;28;20080;-28
2022/06/23 05:59:05;;;;;;;11.35;10.05;;;16.30;99.90;;;;;;5034022;28;20063;-29
2022/06/23 06:01:35;;;;;;;11.68;10.38;;;16.50;99.90;;;;;;5051640;28;20511;-29
2022/06/23 06:04:05;;;;;;;12.13;10.88;;;16.60;99.90;;;;;;5052745;28;20033;-29
2022/06/23 06:06:34;;;;;;;11.50;10.40;;;16.70;99.90;;;;;;5049886;28;20037;-29
2022/06/23 06:11:55;;;;;;;10.88;9.82;;;16.90;99.90;;;;;;5053238;28;20036;-30
2022/06/23 06:14:26;;;;;;;11.05;9.43;;;17.10;99.90;;;;;;5019603;28;20041;-29
2022/06/23 06:16:55;;;;;;;11.35;10.20;;;17.20;99.90;;;;;;5051273;28;20037;-29
2022/06/23 06:19:24;;;;;;;11.93;10.02;;;17.30;99.90;;;;;;5036993;28;20116;-29
2022/06/23 06:21:56;;;;;;;11.43;9.90;;;17.40;99.90;;;;;;5036789;28;20059;-29
2022/06/23 06:24:34;;;;;;;12.55;10.52;;;17.50;99.90;;;;;;5047820;28;20060;-29
2022/06/23 06:27:03;;;;;;;11.95;9.95;;;17.70;99.90;;;;;;5053737;28;20397;-29
2022/06/23 06:29:38;;;;;;;9.68;8.65;;;17.80;99.90;;;;;;5036714;28;20292;-29
2022/06/23 06:32:19;;;;;;;11.18;9.95;;;18.00;99.90;;;;;;5053213;28;20488;-29
2022/06/23 06:34:50;;;;;;;11.98;10.27;;;18.10;99.90;;;;;;5039338;28;20053;-29
2022/06/23 06:37:17;;;;;;;12.25;9.98;;;18.30;99.90;;;;;;5050729;28;20041;-29
2022/06/23 06:39:50;;;;;;;11.90;9.73;;;18.40;99.90;;;;;;5053427;28;20041;-30
2022/06/23 06:42:29;;;;;;;12.23;10.48;;;18.50;99.90;;;;;;5035942;28;20044;-29
2022/06/23 06:44:57;;;;;;;11.15;9.88;;;18.60;99.90;;;;;;5054128;28;20164;-30
2022/06/23 06:47:26;;;;;;;10.45;9.43;;;18.70;99.90;;;;;;5046453;28;20044;-29
2022/06/23 06:49:58;;;;;;;11.63;10.07;;;18.80;99.90;;;;;;5051215;28;20033;-30
2022/06/23 06:52:27;;;;;;;11.37;9.33;;;19.00;99.90;;;;;;5053462;28;20099;-30
2022/06/23 06:55:02;;;;;;;11.52;8.70;;;19.10;99.90;;;;;;5050010;28;20271;-29
2022/06/23 06:57:43;;;;;;;10.13;9.13;;;19.30;99.90;;;;;;5053024;28;20041;-29
2022/06/23 07:00:27;;;;;;;10.30;8.18;;;19.40;99.90;;;;;;5053473;28;20037;-29
2022/06/23 07:02:59;;;;;;;10.30;8.90;;;19.60;99.90;;;;;;5054331;28;20055;-29
2022/06/23 07:05:34;;;;;;;8.93;7.97;;;19.80;99.90;;;;;;5053513;28;20039;-29
2022/06/23 07:08:16;;;;;;;8.90;8.10;;;20.00;99.90;;;;;;5048159;28;20040;-29
2022/06/23 07:11:04;;;;;;;9.77;7.78;;;20.20;99.90;;;;;;5047866;28;20220;-28
2022/06/23 07:13:36;;;;;;;9.50;8.05;;;20.40;99.90;;;;;;5044429;28;20072;-28
2022/06/23 07:16:23;;;;;;;9.52;8.27;;;20.50;99.90;;;;;;5038939;28;20111;-28
2022/06/23 07:19:14;;;;;;;9.05;8.07;;;20.70;99.90;;;;;;5052154;28;20033;-30
2022/06/23 07:21:49;;;;;;;9.20;7.07;;;20.90;99.90;;;;;;5050623;28;20319;-30
2022/06/23 07:24:41;;;;;;;8.80;7.28;;;21.00;99.90;;;;;;5030858;28;20388;-29
2022/06/23 07:27:21;;;;;;;7.53;6.72;;;21.10;99.90;;;;;;5034108;28;20497;-29
2022/06/23 07:30:05;;;;;;;9.20;6.75;;;21.40;99.90;;;;;;5049440;28;20040;-29
2022/06/23 07:32:45;;;;;;;7.63;6.82;;;21.60;99.90;;;;;;5034976;28;20033;-28
2022/06/23 07:35:26;;;;;;;7.68;6.25;;;21.70;99.90;;;;;;5049366;28;20040;-29
2022/06/23 07:38:07;;;;;;;8.85;5.97;;;21.90;99.90;;;;;;5049468;28;20107;-29
2022/06/23 07:40:43;;;;;;;7.28;5.70;;;22.10;99.90;;;;;;5047065;28;20463;-29
2022/06/23 07:43:22;;;;;;;8.00;5.53;;;22.30;99.90;;;;;;5050908;28;20511;-29
2022/06/23 07:45:57;;;;;;;6.18;5.53;;;22.50;99.90;;;;;;5011871;28;20037;-29
2022/06/23 07:48:24;;;;;;;6.88;6.10;;;22.60;99.90;;;;;;5047303;28;20043;-30
2022/06/23 07:50:50;;;;;;;6.93;5.70;;;22.70;99.90;;;;;;5048023;28;20041;-29
2022/06/23 07:53:29;;;;;;;6.40;5.07;;;22.90;99.90;;;;;;5041450;28;20052;-29
2022/06/23 07:55:55;;;;;;;6.35;4.80;;;23.00;99.90;;;;;;5044507;28;20075;-30
2022/06/23 07:58:30;;;;;;;7.05;5.57;;;23.30;99.90;;;;;;5048841;28;20032;-29
2022/06/23 08:01:13;;;;;;;5.68;5.18;;;23.40;99.90;;;;;;5043473;28;20174;-30
2022/06/23 08:03:55;;;;;;;5.40;4.80;;;23.50;99.90;;;;;;5044800;28;20037;-30
2022/06/23 08:06:21;;;;;;;6.95;5.20;;;23.70;99.90;;;;;;5034392;28;20045;-31
2022/06/23 08:08:51;;;;;;;5.53;4.80;;;23.70;99.90;;;;;;5047305;28;20419;-30
2022/06/23 08:14:27;;;;;;;9.55;6.03;;;24.00;99.90;;;;;;5034342;28;20044;-30
2022/06/23 08:16:53;;;;;;;8.27;4.63;;;24.20;99.90;;;;;;5039446;28;20065;-30
2022/06/23 08:19:28;;;;;;;6.80;4.80;;;24.40;99.90;;;;;;5048382;28;20083;-30
2022/06/23 08:22:19;;;;;;;7.10;4.90;;;24.60;99.90;;;;;;5048539;28;20033;-30
2022/06/23 08:24:49;;;;;;;5.72;4.47;;;24.80;99.90;;;;;;5051427;28;20025;-30
2022/06/23 08:27:19;;;;;;;6.82;5.10;;;25.00;99.70;;;;;;5046854;28;20047;-31
2022/06/23 08:29:51;;;;;;;7.95;5.38;;;25.20;97.40;;;;;;5053070;28;20040;-31
2022/06/23 08:32:17;;;;;;;6.93;5.50;;;25.10;94.60;;;;;;5050089;28;20107;-31
2022/06/23 08:35:08;;;;;;;5.32;4.60;;;25.30;94.60;;;;;;5043173;28;20531;-31
2022/06/23 08:37:52;;;;;;;6.22;4.70;;;25.50;95.20;;;;;;5044843;28;20190;-30
2022/06/23 08:40:21;;;;;;;;;;;25.70;94.20;;;;;;5051929;28;20045;-31
2022/06/23 08:42:57;;;;;;;5.55;4.18;;;25.90;95.80;;;;;;5047898;28;20096;-31
2022/06/23 08:45:32;;;;;;;5.30;4.47;;;26.20;92.40;;;;;;5029293;28;20045;-30
2022/06/23 08:48:22;;;;;;;6.10;4.10;;;26.40;92.40;;;;;;5038107;28;20143;-30
2022/06/23 08:51:12;;;;;;;5.30;4.68;;;26.70;92.50;;;;;;5043664;28;20064;-30
2022/06/23 08:54:12;;;;;;;6.28;4.72;;;26.90;73.80;;;;;;5026528;28;20638;-29
2022/06/23 08:57:00;;;;;;;5.00;3.78;;;26.90;86.20;;;;;;5033023;28;20052;-31
2022/06/23 08:59:35;;;;;;;4.78;4.35;;;27.10;78.30;;;;;;5043975;28;20068;-31
2022/06/23 09:02:12;;;;;;;6.13;3.75;;;27.30;83.70;;;;;;5033232;28;20065;-31
2022/06/23 09:05:03;;;;;;;6.78;4.45;;;27.50;78.90;;;;;;5037449;28;20033;-31
2022/06/23 09:07:42;;;;;;;7.78;4.43;;;27.70;76.80;;;;;;5047607;28;20037;-31
2022/06/23 09:10:34;;;;;;;4.32;3.67;;;27.90;70.40;;;;;;5028464;28;20072;-31
2022/06/23 09:13:28;;;;;;;4.70;4.30;;;28.00;74.20;;;;;;5049298;28;20045;-31
2022/06/23 09:16:02;;;;;;;4.32;3.92;;;28.10;67.90;;;;;;5041430;28;20040;-31
2022/06/23 09:18:46;;;;;;;4.43;4.03;;;28.30;68.50;;;;;;5048862;28;20045;-31
2022/06/23 09:21:33;;;;;;;5.43;3.95;;;28.40;62.20;;;;;;5049456;28;20037;-31
2022/06/23 09:24:36;;;;;;;4.47;4.07;;;28.60;62.80;;;;;;5045211;28;20048;-31
2022/06/23 09:27:10;;;;;;;6.70;4.20;;;28.80;63.80;;;;;;5043367;28;20033;-31
2022/06/23 09:29:51;;;;;;;4.57;3.80;;;29.00;64.10;;;;;;5042698;28;20116;-31
2022/06/23 09:32:29;;;;;;;4.22;3.78;;;29.20;54.20;;;;;;5034476;28;20033;-31
2022/06/23 09:35:27;;;;;;;6.18;3.88;;;29.20;62.70;;;;;;5048079;28;20037;-31
2022/06/23 09:37:59;;;;;;;4.10;3.53;;;29.50;62.00;;;;;;5029365;28;20083;-30
2022/06/23 09:40:34;;;;;;;3.83;3.45;;;29.80;58.60;;;;;;5045734;28;20034;-31
2022/06/23 09:43:31;;;;;;;4.45;3.78;;;29.90;58.50;;;;;;5051629;28;20076;-31
2022/06/23 09:46:20;;;;;;;4.82;3.60;;;30.00;54.00;;;;;;5047875;28;20041;-30
2022/06/23 09:49:17;;;;;;;3.88;3.10;;;30.20;54.80;;;;;;5045818;28;20107;-31
2022/06/23 09:52:10;;;;;;;4.20;3.40;;;30.50;57.10;;;;;;5054887;28;20476;-28
2022/06/23 09:55:21;;;;;;;5.90;3.88;;;30.80;53.70;;;;;;5047914;28;20077;-29
2022/06/23 09:58:10;;;;;;;5.65;4.00;;;31.00;53.10;;;;;;5042230;28;20087;-29
2022/06/23 10:00:49;;;;;;;4.22;3.42;;;31.00;53.20;;;;;;5034778;28;20037;-28
2022/06/23 10:03:33;;;;;;;4.43;3.50;;;31.00;54.40;;;;;;5049532;28;20091;-28
2022/06/23 10:06:05;;;;;;;4.18;3.55;;;31.20;52.60;;;;;;5018986;28;20052;-28
2022/06/23 10:09:05;;;;;;;4.27;3.40;;;31.20;50.80;;;;;;5051624;28;20036;-28
2022/06/23 10:11:39;;;;;;;5.55;3.47;;;31.30;52.90;;;;;;5038652;28;20094;-28
2022/06/23 10:14:24;;;;;;;3.70;2.97;;;31.30;50.00;;;;;;5042820;28;20619;-28
2022/06/23 10:17:19;;;;;;;4.75;3.50;;;31.30;50.90;;;;;;5038482;28;20041;-28
2022/06/23 10:20:13;;;;;;;5.55;3.58;;;31.70;47.50;;;;;;5047318;28;20091;-28
2022/06/23 10:22:51;;;;;;;3.50;3.03;;;31.80;47.00;;;;;;5043041;28;20080;-28
2022/06/23 10:25:38;;;;;;;4.45;3.47;;;31.70;47.80;;;;;;5027971;28;20048;-28
2022/06/23 10:28:29;;;;;;;5.68;3.40;;;31.50;48.50;;;;;;5053638;28;20431;-28
2022/06/23 10:31:27;;;;;;;6.30;3.75;;;31.60;48.90;;;;;;5053407;28;20498;-28
2022/06/23 10:34:14;;;;;;;3.28;3.00;;;32.10;48.80;;;;;;5050535;28;20067;-28
2022/06/23 10:36:59;;;;;;;6.00;3.17;;;32.40;47.80;;;;;;5028760;28;20408;-28
2022/06/23 10:39:53;;;;;;;4.22;2.90;;;32.60;44.50;;;;;;5039465;28;20048;-28
2022/06/23 10:42:43;;;;;;;2.85;2.65;;;32.80;44.60;;;;;;5034490;28;20076;-28
2022/06/23 10:45:27;;;;;;;2.90;2.70;;;32.90;46.20;;;;;;5059537;28;20046;-28
2022/06/23 10:48:14;;;;;;;4.10;3.10;;;32.70;42.60;;;;;;5047625;28;20033;-28
2022/06/23 10:51:10;;;;;;;2.90;2.60;;;32.80;44.30;;;;;;5053218;28;20065;-28
2022/06/23 10:54:03;;;;;;;3.65;2.90;;;33.00;44.10;;;;;;5039184;28;20472;-28
2022/06/23 10:56:31;;;;;;;;;;;33.00;43.50;;;;;;5053223;28;20059;-27
2022/06/23 10:59:22;;;;;;;3.40;2.92;;;33.10;44.60;;;;;;5052878;28;19920;-27
2022/06/23 11:02:09;;;;;;;4.93;2.78;;;32.90;43.10;;;;;;5060978;28;20531;-27
2022/06/23 11:04:55;;;;;;;6.53;2.83;;;33.00;44.50;;;;;;5061664;28;20041;-27
2022/06/23 11:07:24;;;;;;;3.28;2.97;;;33.30;43.90;;;;;;5052201;28;20040;-27
2022/06/23 11:10:09;;;;;;;4.63;2.67;;;33.20;42.50;;;;;;5052267;28;20049;-28
2022/06/23 11:12:50;;;;;;;2.75;2.55;;;33.50;43.10;;;;;;5045032;28;20111;-28
2022/06/23 11:15:44;;;;;;;3.15;2.45;;;33.80;43.30;;;;;;5052942;28;20512;-28
2022/06/23 11:18:30;;;;;;;3.35;2.58;;;34.10;40.50;;;;;;5034885;28;20044;-28
2022/06/23 11:21:14;;;;;;;4.93;2.92;;;34.40;43.10;;;;;;5052906;28;20497;-28
2022/06/23 11:24:08;;;;;;;3.40;2.90;;;34.40;42.40;;;;;;5052707;28;20186;-28
2022/06/23 11:26:37;;;;;;;5.78;2.88;;;34.10;38.80;;;;;;5052509;28;20552;-28
2022/06/23 11:29:39;;;;;;;3.95;2.45;;;33.70;40.90;;;;;;5049842;28;20068;-28
2022/06/23 11:32:22;;;;;;;5.97;2.30;;;34.00;41.90;;;;;;5052694;28;20033;-41
2022/06/23 11:35:04;;;;;;;3.30;2.60;;;34.30;41.50;;;;;;5053207;28;20083;-28
2022/06/23 11:37:57;;;;;;;2.70;2.50;;;34.50;41.70;;;;;;5053800;28;20115;-28
2022/06/23 11:40:45;;;;;;;3.45;2.40;;;34.60;41.60;;;;;;5035515;28;20299;-28
2022/06/23 11:43:16;;;;;;;3.00;2.40;;;35.00;39.90;;;;;;5053801;28;20041;-28
2022/06/23 11:45:48;;;;;;;3.70;2.35;;;35.30;39.90;;;;;;5053358;28;20488;-28
2022/06/23 11:48:40;;;;;;;5.00;2.67;;;35.00;38.00;;;;;;5032256;28;20048;-28
2022/06/23 11:51:48;;;;;;;3.38;2.35;;;35.00;38.00;;;;;;5046005;28;20076;-28
2022/06/23 11:54:50;;;;;;;3.17;2.15;;;34.90;36.70;;;;;;5043694;28;20118;-28
2022/06/23 11:57:53;;;;;;;4.43;2.10;;;34.90;36.90;;;;;;5036306;28;20048;-28
2022/06/23 12:00:35;;;;;;;4.40;2.20;;;34.90;34.60;;;;;;5035105;28;20041;-28
2022/06/23 12:03:04;;;;;;;5.07;2.58;;;34.70;37.00;;;;;;5053582;28;20045;-28
2022/06/23 12:05:41;;;;;;;3.85;2.40;;;34.80;36.70;;;;;;5053164;28;20052;-28
2022/06/23 12:08:27;;;;;;;3.45;2.20;;;34.70;37.40;;;;;;5058218;28;20079;-28
2022/06/23 12:10:53;;;;;;;2.90;2.50;;;34.80;37.30;;;;;;5049369;28;20232;-28
2022/06/23 12:13:19;;;;;;;3.15;2.25;;;34.90;37.10;;;;;;5033682;28;20033;-27
2022/06/23 12:15:49;;;;;;;3.80;2.45;;;35.20;37.50;;;;;;5052036;28;20036;-28
2022/06/23 12:18:39;;;;;;;4.18;2.25;;;35.10;36.80;;;;;;5051583;28;20037;-28
2022/06/23 12:21:25;;;;;;;3.70;2.50;;;35.30;36.50;;;;;;5048532;28;20037;-28
2022/06/23 12:24:18;;;;;;;2.47;2.28;;;35.60;35.90;;;;;;5032987;28;20116;-28
2022/06/23 12:26:58;;;;;;;2.42;2.22;;;35.90;36.90;;;;;;5030998;28;20068;-28
2022/06/23 12:29:55;;;;;;;5.38;2.65;;;36.00;36.20;;;;;;5051706;28;20521;-27
2022/06/23 12:32:47;;;;;;;3.35;2.50;;;36.20;35.00;;;;;;5033961;28;20450;-28
2022/06/23 12:35:30;;;;;;;5.65;2.35;;;35.80;34.00;;;;;;5051429;28;20097;-28
2022/06/23 12:38:07;;;;;;;3.15;2.40;;;35.90;36.70;;;;;;5037194;28;20045;-28
2022/06/23 12:40:49;;;;;;;2.53;2.13;;;36.10;35.80;;;;;;5031844;28;20036;-27
2022/06/23 12:43:53;;;;;;;2.63;2.25;;;36.30;36.40;;;;;;5039279;28;20044;-28
2022/06/23 12:47:02;;;;;;;3.03;2.72;;;36.60;35.70;;;;;;5036293;28;20048;-27
2022/06/23 12:49:34;;;;;;;2.80;2.33;;;36.60;35.40;;;;;;5050306;28;20111;-27
2022/06/23 12:52:34;;;;;;;2.45;2.10;;;36.90;36.40;;;;;;5051360;28;20071;-27
2022/06/23 12:55:35;;;;;;;3.85;2.15;;;37.10;34.60;;;;;;5041239;28;20045;-27
2022/06/23 12:58:28;;;;;;;4.35;1.92;;;37.30;34.70;;;;;;5036239;28;20570;-27
2022/06/23 13:01:00;;;;;;;4.70;2.65;;;37.50;32.80;;;;;;5045524;28;20163;-27
2022/06/23 13:03:30;;;;;;;2.10;2.00;;;37.10;32.50;;;;;;5051238;28;20502;-27
2022/06/23 13:06:14;;;;;;;3.70;2.33;;;37.10;33.60;;;;;;5044055;28;20120;-27
2022/06/23 13:08:50;;;;;;;2.53;2.25;;;37.50;34.10;;;;;;5045260;28;20530;-28
2022/06/23 13:11:27;;;;;;;2.83;2.30;;;37.70;33.10;;;;;;5050938;28;20041;-28
2022/06/23 13:14:05;;;;;;;2.60;2.40;;;37.90;32.10;;;;;;5051014;28;20279;-27
2022/06/23 13:16:49;;;;;;;3.58;2.03;;;38.00;32.50;;;;;;5050746;28;20068;-28
2022/06/23 13:19:27;;;;;;;4.75;2.22;;;38.20;32.50;;;;;;5050861;28;20037;-27
2022/06/23 13:22:04;;;;;;;2.42;2.20;;;38.20;31.10;;;;;;5050996;28;20094;-27
2022/06/23 13:24:34;;;;;;;3.28;2.15;;;38.30;31.40;;;;;;5043677;28;20029;-28
2022/06/23 13:27:00;;;;;;;2.40;2.10;;;38.30;31.20;;;;;;5050851;28;20148;-28
2022/06/23 13:29:48;;;;;;;5.45;2.30;;;38.50;30.60;;;;;;5050974;28;20490;-28
2022/06/23 13:32:40;;;;;;;2.25;2.05;;;38.70;30.30;;;;;;5050637;28;20047;-28
2022/06/23 13:35:09;;;;;;;2.40;2.20;;;38.70;30.70;;;;;;5047238;28;20492;-28
2022/06/23 13:37:53;;;;;;;3.35;2.40;;;38.60;30.60;;;;;;5017327;28;20126;-27
2022/06/23 13:40:41;;;;;;;2.33;2.03;;;38.20;30.00;;;;;;5040889;28;20048;-27
2022/06/23 13:43:10;;;;;;;2.67;2.25;;;38.20;31.30;;;;;;5036657;28;20397;-28
2022/06/23 13:45:46;;;;;;;3.70;2.30;;;38.20;30.70;;;;;;5046349;28;20060;-28
2022/06/23 13:48:19;;;;;;;2.60;2.40;;;38.40;31.70;;;;;;5037641;28;20109;-28
2022/06/23 13:50:48;;;;;;;4.45;2.70;;;38.50;31.60;;;;;;5036129;28;20048;-27
2022/06/23 13:53:47;;;;;;;3.50;2.25;;;38.40;30.90;;;;;;5050361;28;20041;-28
2022/06/23 13:56:24;;;;;;;2.45;2.25;;;38.40;31.40;;;;;;5041975;28;20477;-27
2022/06/23 13:58:58;;;;;;;2.90;2.40;;;38.40;30.60;;;;;;5050138;28;20041;-28
2022/06/23 14:01:48;;;;;;;2.60;2.40;;;38.00;31.10;;;;;;5051451;28;20099;-28